createdAt,value
2023-11-13T00:02:50.338Z,5.51
2023-11-13T00:06:14.470Z,5.49
2023-11-13T00:09:36.293Z,5.47
2023-11-13T00:12:59.436Z,5.48
2023-11-13T00:16:21.443Z,5.49
2023-11-13T00:19:45.556Z,5.49
2023-11-13T00:23:07.859Z,5.48
2023-11-13T00:26:29.469Z,5.51
2023-11-13T00:29:52.994Z,5.53
2023-11-13T00:33:14.351Z,5.57
2023-11-13T00:36:36.330Z,5.58
2023-11-13T00:39:58.705Z,5.59
2023-11-13T00:43:20.371Z,5.57
2023-11-13T00:46:44.035Z,5.57
2023-11-13T00:50:07.141Z,5.58
2023-11-13T00:53:28.859Z,5.59
2023-11-13T00:56:50.720Z,5.60
2023-11-13T01:00:14.527Z,5.63
2023-11-13T01:03:38.155Z,5.65
2023-11-13T01:06:59.820Z,5.64
2023-11-13T01:10:22.430Z,5.69
2023-11-13T01:13:44.264Z,5.68
2023-11-13T01:17:07.180Z,5.69
2023-11-13T01:20:30.324Z,5.70
2023-11-13T01:23:52.026Z,5.73
2023-11-13T01:27:13.762Z,5.74
2023-11-13T01:30:35.430Z,5.74
2023-11-13T01:33:57.121Z,5.76
2023-11-13T01:37:20.589Z,5.78
2023-11-13T01:40:42.468Z,5.79
2023-11-13T01:44:03.952Z,5.79
2023-11-13T01:47:25.510Z,5.83
2023-11-13T01:50:47.708Z,5.83
2023-11-13T01:54:10.747Z,5.81
2023-11-13T01:57:32.932Z,5.84
2023-11-13T02:00:55.001Z,5.85
2023-11-13T02:04:17.790Z,5.85
2023-11-13T02:07:39.537Z,5.82
2023-11-13T02:11:05.904Z,5.79
2023-11-13T02:14:27.781Z,5.76
2023-11-13T02:18:02.954Z,5.78
2023-11-13T02:21:24.734Z,5.78
2023-11-13T02:24:47.799Z,5.77
2023-11-13T02:28:10.869Z,5.75
2023-11-13T02:31:32.887Z,5.74
2023-11-13T02:34:54.736Z,5.71
2023-11-13T02:38:16.254Z,5.68
2023-11-13T02:41:39.642Z,5.63
2023-11-13T02:45:01.234Z,5.57
2023-11-13T02:48:22.861Z,5.56
2023-11-13T02:51:44.639Z,5.50
2023-11-13T02:55:07.299Z,5.49
2023-11-13T02:58:30.467Z,5.48
2023-11-13T03:01:52.015Z,5.42
2023-11-13T03:05:16.041Z,5.39
2023-11-13T03:08:37.764Z,5.35
2023-11-13T03:11:59.630Z,5.36
2023-11-13T03:15:22.841Z,5.32
2023-11-13T03:18:44.236Z,5.27
2023-11-13T03:22:05.881Z,5.25
2023-11-13T03:25:27.914Z,5.18
2023-11-13T03:28:49.669Z,5.16
2023-11-13T03:32:13.063Z,5.12
2023-11-13T03:35:34.937Z,5.07
2023-11-13T03:38:56.539Z,5.02
2023-11-13T03:42:17.955Z,4.96
2023-11-13T03:45:40.195Z,4.92
2023-11-13T03:49:05.007Z,4.83
2023-11-13T03:52:26.755Z,4.80
2023-11-13T03:55:48.773Z,4.73
2023-11-13T03:59:10.430Z,4.69
2023-11-13T04:02:32.291Z,4.64
2023-11-13T04:05:56.033Z,4.56
2023-11-13T04:09:18.145Z,4.52
2023-11-13T04:12:41.767Z,4.44
2023-11-13T04:16:04.441Z,4.37
2023-11-13T04:19:26.150Z,4.32
2023-11-13T04:22:50.092Z,4.27
2023-11-13T04:26:11.728Z,4.23
2023-11-13T04:29:33.112Z,4.17
2023-11-13T04:32:54.661Z,4.11
2023-11-13T04:36:16.940Z,4.05
2023-11-13T04:39:40.459Z,4.03
2023-11-13T04:43:05.464Z,4.00
2023-11-13T04:46:28.625Z,4.00
2023-11-13T04:49:51.893Z,3.98
2023-11-13T04:53:13.764Z,3.97
2023-11-13T04:56:37.166Z,3.94
2023-11-13T04:59:59.109Z,3.96
2023-11-13T05:03:21.065Z,3.97
2023-11-13T05:06:44.381Z,3.95
2023-11-13T05:10:07.442Z,3.97
2023-11-13T05:13:30.727Z,3.96
2023-11-13T05:16:56.499Z,3.97
2023-11-13T05:20:18.838Z,3.99
2023-11-13T05:23:40.386Z,3.97
2023-11-13T05:27:01.822Z,4.00
2023-11-13T05:30:25.612Z,4.03
2023-11-13T05:33:47.329Z,4.09
2023-11-13T05:37:08.908Z,4.10
2023-11-13T05:40:30.821Z,4.12
2023-11-13T05:43:56.125Z,4.18
2023-11-13T05:47:19.662Z,4.29
2023-11-13T05:50:41.504Z,4.34
2023-11-13T05:54:02.958Z,4.42
2023-11-13T05:57:25.087Z,4.48
2023-11-13T06:00:46.496Z,4.57
2023-11-13T06:04:09.539Z,4.61
2023-11-13T06:07:31.680Z,4.63
2023-11-13T06:10:53.111Z,4.67
2023-11-13T06:14:14.828Z,4.72
2023-11-13T06:17:36.308Z,4.77
2023-11-13T06:20:59.657Z,4.81
2023-11-13T06:24:21.566Z,4.86
2023-11-13T06:27:43.196Z,4.88
2023-11-13T06:31:05.117Z,4.90
2023-11-13T06:34:27.001Z,4.92
2023-11-13T06:37:50.068Z,4.94
2023-11-13T06:41:12.575Z,4.99
2023-11-13T06:44:34.749Z,5.02
2023-11-13T06:47:56.133Z,5.05
2023-11-13T06:51:18.218Z,5.07
2023-11-13T06:54:42.208Z,5.15
2023-11-13T06:58:04.888Z,5.19
2023-11-13T07:01:26.994Z,5.23
2023-11-13T07:04:48.622Z,5.24
2023-11-13T07:08:11.129Z,5.27
2023-11-13T07:11:34.122Z,5.35
2023-11-13T07:14:56.643Z,5.43
2023-11-13T07:18:19.968Z,5.46
2023-11-13T07:21:43.118Z,5.54
2023-11-13T07:25:05.477Z,5.60
2023-11-13T07:28:28.713Z,5.65
2023-11-13T07:31:50.592Z,5.71
2023-11-13T07:35:12.974Z,5.76
2023-11-13T07:38:34.892Z,5.86
2023-11-13T07:41:56.597Z,5.97
2023-11-13T07:45:22.018Z,6.02
2023-11-13T07:48:44.009Z,6.03
2023-11-13T07:52:06.393Z,6.08
2023-11-13T07:55:28.612Z,6.14
2023-11-13T07:58:50.297Z,6.19
2023-11-13T08:02:14.351Z,6.23
2023-11-13T08:05:36.215Z,6.26
2023-11-13T08:08:58.210Z,6.33
2023-11-13T08:12:20.910Z,6.41
2023-11-13T08:15:43.927Z,6.51
2023-11-13T08:19:08.850Z,6.63
2023-11-13T08:22:30.985Z,6.70
2023-11-13T08:25:53.731Z,6.81
2023-11-13T08:29:16.587Z,6.87
2023-11-13T08:32:38.108Z,6.90
2023-11-13T08:36:01.401Z,6.94
2023-11-13T08:39:24.078Z,7.01
2023-11-13T08:42:46.018Z,7.07
2023-11-13T08:46:07.566Z,7.08
2023-11-13T08:49:29.331Z,7.17
2023-11-13T08:52:54.865Z,7.18
2023-11-13T08:56:17.257Z,7.20
2023-11-13T08:59:39.887Z,7.21
2023-11-13T09:03:01.357Z,7.24
2023-11-13T09:06:23.458Z,7.33
2023-11-13T09:13:08.890Z,7.39
2023-11-13T09:16:30.881Z,7.46
2023-11-13T09:19:52.806Z,7.46
2023-11-13T09:23:14.435Z,7.53
2023-11-13T09:26:37.797Z,7.58
2023-11-13T09:29:59.653Z,7.61
2023-11-13T09:33:21.904Z,7.64
2023-11-13T09:36:45.681Z,7.70
2023-11-13T09:40:09.608Z,7.77
2023-11-13T09:43:36.324Z,7.79
2023-11-13T09:47:00.283Z,7.89
2023-11-13T09:50:21.959Z,7.91
2023-11-13T09:53:44.876Z,7.98
2023-11-13T09:57:10.315Z,8.01
2023-11-13T10:00:34.457Z,8.06
2023-11-13T10:03:56.579Z,8.10
2023-11-13T10:07:20.812Z,8.17
2023-11-13T10:10:43.979Z,8.22
2023-11-13T10:14:14.260Z,8.22
2023-11-13T10:17:45.509Z,8.20
2023-11-13T10:21:08.664Z,8.17
2023-11-13T10:24:37.930Z,8.16
2023-11-13T10:28:06.462Z,8.20
2023-11-13T10:31:45.120Z,8.24
2023-11-13T10:35:10.801Z,8.28
2023-11-13T10:38:44.825Z,8.35
2023-11-13T10:42:11.026Z,8.39
2023-11-13T10:45:34.107Z,8.47
2023-11-13T10:48:58.218Z,8.52
2023-11-13T10:52:22.846Z,8.58
2023-11-13T10:55:46.519Z,8.62
2023-11-13T10:59:11.482Z,8.68
2023-11-13T11:02:38.437Z,8.73
2023-11-13T11:06:07.596Z,8.76
2023-11-13T11:09:32.080Z,8.83
2023-11-13T11:13:01.369Z,8.85
2023-11-13T11:16:31.914Z,8.94
2023-11-13T11:20:00.080Z,8.99
2023-11-13T11:23:28.902Z,9.00
2023-11-13T11:27:01.321Z,9.01
2023-11-13T11:30:32.966Z,9.03
2023-11-13T11:33:56.905Z,9.06
2023-11-13T11:37:18.430Z,9.06
2023-11-13T11:40:40.412Z,9.12
2023-11-13T11:44:10.645Z,9.17
2023-11-13T11:47:32.609Z,9.19
2023-11-13T11:50:57.283Z,9.22
2023-11-13T11:54:18.993Z,9.21
2023-11-13T11:57:45.376Z,9.23
2023-11-13T12:01:09.944Z,9.24
2023-11-13T12:04:33.457Z,9.27
2023-11-13T12:07:56.716Z,9.29
2023-11-13T12:11:21.662Z,9.33
2023-11-13T12:14:43.565Z,9.35
2023-11-13T12:18:06.770Z,9.38
2023-11-13T12:21:29.490Z,9.40
2023-11-13T12:24:52.065Z,9.39
2023-11-13T12:28:14.150Z,9.39
2023-11-13T12:31:35.875Z,9.43
2023-11-13T12:35:00.354Z,9.40
2023-11-13T12:38:22.286Z,9.44
2023-11-13T12:41:44.922Z,9.43
2023-11-13T12:45:13.365Z,9.44
2023-11-13T12:48:36.563Z,9.45
2023-11-13T12:51:59.677Z,9.45
2023-11-13T12:55:23.181Z,9.47
2023-11-13T12:58:45.570Z,9.45
2023-11-13T13:02:07.344Z,9.45
2023-11-13T13:05:32.043Z,9.44
2023-11-13T13:08:58.210Z,9.44
2023-11-13T13:12:20.390Z,9.44
2023-11-13T13:15:42.019Z,9.40
2023-11-13T13:19:04.021Z,9.36
2023-11-13T13:22:27.446Z,9.35
2023-11-13T13:25:51.560Z,9.33
2023-11-13T13:29:13.972Z,9.33
2023-11-13T13:32:35.684Z,9.29
2023-11-13T13:35:59.836Z,9.24
2023-11-13T13:39:21.406Z,9.18
2023-11-13T13:42:46.396Z,9.13
2023-11-13T13:46:11.130Z,9.07
2023-11-13T13:49:33.087Z,9.06
2023-11-13T13:52:58.020Z,9.03
2023-11-13T13:56:23.109Z,9.05
2023-11-13T13:59:46.696Z,9.01
2023-11-13T14:03:13.181Z,8.96
2023-11-13T14:06:36.827Z,8.92
2023-11-13T14:09:58.653Z,8.88
2023-11-13T14:13:21.016Z,8.87
2023-11-13T14:16:47.144Z,8.84
2023-11-13T14:20:15.462Z,8.87
2023-11-13T14:23:37.568Z,8.82
2023-11-13T14:26:59.590Z,8.81
2023-11-13T14:30:22.754Z,8.76
2023-11-13T14:33:48.863Z,8.72
2023-11-13T14:37:15.391Z,8.69
2023-11-13T14:40:37.763Z,8.63
2023-11-13T14:43:59.264Z,8.60
2023-11-13T14:47:20.903Z,8.56
2023-11-13T14:50:45.622Z,8.56
2023-11-13T14:54:07.992Z,8.50
2023-11-13T14:57:29.918Z,8.45
2023-11-13T15:00:51.434Z,8.42
2023-11-13T15:04:13.259Z,8.42
2023-11-13T15:07:36.755Z,8.40
2023-11-13T15:10:58.933Z,8.35
2023-11-13T15:14:21.480Z,8.33
2023-11-13T15:17:43.813Z,8.31
2023-11-13T15:21:06.620Z,8.28
2023-11-13T15:24:29.605Z,8.26
2023-11-13T15:27:51.463Z,8.22
2023-11-13T15:31:12.964Z,8.20
2023-11-13T15:34:35.602Z,8.18
2023-11-13T15:37:57.155Z,8.14
2023-11-13T15:41:20.632Z,8.11
2023-11-13T15:44:42.668Z,8.09
2023-11-13T15:48:05.865Z,8.11
2023-11-13T15:51:27.769Z,8.11
2023-11-13T15:54:49.293Z,8.13
2023-11-13T15:58:12.230Z,8.14
2023-11-13T16:01:33.986Z,8.09
2023-11-13T16:04:58.294Z,8.07
2023-11-13T16:08:20.100Z,8.09
2023-11-13T16:11:42.325Z,8.08
2023-11-13T16:15:08.481Z,8.09
2023-11-13T16:18:31.287Z,8.08
2023-11-13T16:21:52.921Z,8.07
2023-11-13T16:25:16.017Z,8.10
2023-11-13T16:28:38.301Z,8.11
2023-11-13T16:32:05.017Z,8.14
2023-11-13T16:35:26.755Z,8.15
2023-11-13T16:38:50.660Z,8.15
2023-11-13T16:49:44.182Z,8.19
2023-11-13T16:53:05.971Z,8.20
2023-11-13T16:56:27.132Z,8.20
2023-11-13T16:59:48.857Z,8.20
2023-11-13T17:03:10.925Z,8.17
2023-11-13T17:06:34.522Z,8.21
2023-11-13T17:09:56.149Z,8.16
2023-11-13T17:13:17.659Z,8.17
2023-11-13T17:16:40.022Z,8.19
2023-11-13T17:20:01.973Z,8.19
2023-11-13T17:23:25.530Z,8.20
2023-11-13T17:26:47.355Z,8.20
2023-11-13T17:30:11.293Z,8.21
2023-11-13T17:33:32.979Z,8.21
2023-11-13T17:36:54.841Z,8.21
2023-11-13T17:40:20.170Z,8.22
2023-11-13T17:43:42.343Z,8.18
2023-11-13T17:47:05.617Z,8.19
2023-11-13T17:50:27.426Z,8.19
2023-11-13T17:53:49.392Z,8.18
2023-11-13T17:57:15.089Z,8.17
2023-11-13T18:00:37.636Z,8.16
2023-11-13T18:03:59.407Z,8.14
2023-11-13T18:07:21.479Z,8.11
2023-11-13T18:10:43.551Z,8.07
2023-11-13T18:14:07.358Z,8.04
2023-11-13T18:17:29.492Z,8.03
2023-11-13T18:20:52.166Z,8.00
2023-11-13T18:24:13.992Z,7.96
2023-11-13T18:27:35.557Z,7.93
2023-11-13T18:30:59.627Z,7.93
2023-11-13T18:34:21.621Z,7.90
2023-11-13T18:37:44.782Z,7.90
2023-11-13T18:41:07.296Z,7.88
2023-11-13T18:44:29.068Z,7.84
2023-11-13T18:47:53.184Z,7.81
2023-11-13T18:51:17.444Z,7.76
2023-11-13T18:54:39.019Z,7.73
2023-11-13T18:58:01.558Z,7.74
2023-11-13T19:01:23.342Z,7.72
2023-11-13T19:04:47.235Z,7.68
2023-11-13T19:08:10.415Z,7.68
2023-11-13T19:11:32.402Z,7.68
2023-11-13T19:14:53.778Z,7.62
2023-11-13T19:18:16.269Z,7.63
2023-11-13T19:21:39.032Z,7.59
2023-11-13T19:25:01.088Z,7.60
2023-11-13T19:28:23.146Z,7.59
2023-11-13T19:31:44.913Z,7.56
2023-11-13T19:35:07.675Z,7.62
2023-11-13T19:38:31.231Z,7.64
2023-11-13T19:41:52.698Z,7.62
2023-11-13T19:45:14.450Z,7.60
2023-11-13T19:48:36.025Z,7.60
2023-11-13T19:51:58.713Z,7.61
2023-11-13T19:55:22.568Z,7.71
2023-11-13T19:58:44.499Z,7.66
2023-11-13T20:02:07.371Z,7.67
2023-11-13T20:05:31.692Z,7.65
2023-11-13T20:08:53.480Z,7.66
2023-11-13T20:12:17.991Z,7.67
2023-11-13T20:15:39.686Z,7.67
2023-11-13T20:19:01.085Z,7.70
2023-11-13T20:22:23.271Z,7.71
2023-11-13T20:25:45.254Z,7.70
2023-11-13T20:29:08.435Z,7.72
2023-11-13T20:32:29.895Z,7.71
2023-11-13T20:35:53.672Z,7.73
2023-11-13T20:39:15.755Z,7.72
2023-11-13T20:42:37.252Z,7.76
2023-11-13T20:46:03.996Z,7.80
2023-11-13T20:49:25.974Z,7.84
2023-11-13T20:52:47.816Z,7.95
2023-11-13T20:56:10.720Z,7.96
2023-11-13T20:59:33.402Z,8.00
2023-11-13T21:02:56.938Z,8.08
2023-11-13T21:06:18.843Z,8.20
2023-11-13T21:09:40.268Z,8.13
2023-11-13T21:13:04.642Z,8.15
2023-11-13T21:16:27.256Z,8.21
2023-11-13T21:19:50.315Z,8.22
2023-11-13T21:23:12.076Z,8.24
2023-11-13T21:26:33.624Z,8.25
2023-11-13T21:29:55.112Z,8.23
2023-11-13T21:33:16.756Z,8.28
2023-11-13T21:36:39.980Z,8.31
2023-11-13T21:40:01.710Z,8.30
2023-11-13T21:43:24.440Z,8.33
2023-11-13T21:46:47.202Z,8.34
2023-11-13T21:50:13.597Z,8.34
2023-11-13T21:53:36.549Z,8.33
2023-11-13T21:56:57.913Z,8.35
2023-11-13T22:00:19.569Z,8.36
2023-11-13T22:03:41.302Z,8.40
2023-11-13T22:07:04.324Z,8.42
2023-11-13T22:10:27.742Z,8.44
2023-11-13T22:13:49.568Z,8.49
2023-11-13T22:17:11.980Z,8.53
2023-11-13T22:20:34.191Z,8.56
2023-11-13T22:23:55.720Z,8.60
2023-11-13T22:27:20.659Z,8.63
2023-11-13T22:30:43.563Z,8.69
2023-11-13T22:34:05.389Z,8.71
2023-11-13T22:37:27.226Z,8.73
2023-11-13T22:40:49.141Z,8.75
2023-11-13T22:44:12.488Z,8.81
2023-11-13T22:47:34.471Z,8.86
2023-11-13T22:50:56.470Z,8.89
2023-11-13T22:54:17.831Z,8.82
2023-11-13T22:57:39.297Z,8.81
2023-11-13T23:01:02.980Z,8.87
2023-11-13T23:04:24.907Z,8.91
2023-11-13T23:07:47.260Z,8.84
2023-11-13T23:11:10.342Z,8.86
2023-11-13T23:14:32.115Z,8.90
2023-11-13T23:17:54.888Z,8.89
2023-11-13T23:21:16.676Z,8.88
2023-11-13T23:24:38.822Z,8.88
2023-11-13T23:28:00.512Z,8.89
2023-11-13T23:31:22.494Z,8.93
2023-11-13T23:34:45.940Z,8.95
2023-11-13T23:38:07.814Z,8.92
2023-11-13T23:41:29.523Z,8.91
2023-11-13T23:44:50.987Z,8.97
2023-11-13T23:48:14.233Z,8.95
2023-11-13T23:51:37.719Z,8.97
2023-11-13T23:55:00.767Z,8.96
2023-11-13T23:58:22.611Z,8.97
